עמוד ראשי
METAR-TAF:

METAR-TAF

שדות תעופה :

Linguère, סנגל

קו רוחב: 15-23N, קו אורך: 015-07W, גובה: 20מטר

תצפית מזג אוויר נוכחית

הדו"ח נערך לפני 1 שעות ו 4דקות, בשעה 00:00 UTC
רוח 12קשר מכיוון מערב
טמפרטורת 31 צלסיוס
לחות 59%
לחץ 1009 hPa
ראות 10 קילומטר או יותר
ללא עננים שבסיסם נמוך מ 5000 רגל או קומולונימבוס

METAR: GOOG 130000Z 26012KT CAVOK 31/22 Q1009

זמן: 01:04 (01:04 UTC)


TAF: חסר

תצפיות ותחזיות מזג אוויר לגבי יותר מ- 4,000 שדות תעופה ברחבי העולם. דוחות METAR ו- TAF.

התחנות הזמינות מסומנות בנקודות צהובות ואדומות על גבי המפה.

העבר את העכבר לנקודה הצבעונית על מנת לראות את שם התחנה.

לאחר מכן, לחץ כדי לראות את תוכן ואת תחזיות מזג האוויר.

כדי לשנות את המפה: לחץ על הכפתורים הירוקים עם הפלוס השחור כדי להתקרב; על הכפתור הירוק עם המקף כדי להתרחק; או בחיצים הירוקים למפות סמוכות.


METAR-TAF: